sensor_id;sensor_type;location;lat;lon;timestamp;P1;durP1;ratioP1;P2;durP2;ratioP2
60098;SDS011;62818;49.394;8.686;2023-04-10T00:00:54;10.70;;;9.60;;
60098;SDS011;62818;49.394;8.686;2023-04-10T00:02:57;11.02;;;9.10;;
60098;SDS011;62818;49.394;8.686;2023-04-10T00:04:01;10.73;;;9.63;;
60098;SDS011;62818;49.394;8.686;2023-04-10T00:05:02;10.93;;;9.57;;
60098;SDS011;62818;49.394;8.686;2023-04-10T00:06:03;10.90;;;9.15;;
60098;SDS011;62818;49.394;8.686;2023-04-10T00:07:04;10.63;;;9.55;;
60098;SDS011;62818;49.394;8.686;2023-04-10T00:08:05;12.77;;;9.88;;
60098;SDS011;62818;49.394;8.686;2023-04-10T00:09:06;12.87;;;8.90;;
60098;SDS011;62818;49.394;8.686;2023-04-10T00:11:08;10.48;;;9.38;;
60098;SDS011;62818;49.394;8.686;2023-04-10T00:12:09;10.07;;;9.17;;
60098;SDS011;62818;49.394;8.686;2023-04-10T00:13:10;11.57;;;9.85;;
60098;SDS011;62818;49.394;8.686;2023-04-10T00:14:10;11.07;;;9.97;;
60098;SDS011;62818;49.394;8.686;2023-04-10T00:15:11;11.63;;;9.97;;
60098;SDS011;62818;49.394;8.686;2023-04-10T00:16:11;11.00;;;9.90;;
60098;SDS011;62818;49.394;8.686;2023-04-10T00:17:12;10.47;;;9.40;;
60098;SDS011;62818;49.394;8.686;2023-04-10T00:18:12;9.93;;;8.93;;
60098;SDS011;62818;49.394;8.686;2023-04-10T00:19:12;12.37;;;9.97;;
60098;SDS011;62818;49.394;8.686;2023-04-10T00:20:13;10.50;;;9.40;;
60098;SDS011;62818;49.394;8.686;2023-04-10T00:21:14;10.43;;;9.40;;
60098;SDS011;62818;49.394;8.686;2023-04-10T00:22:14;10.80;;;9.70;;
60098;SDS011;62818;49.394;8.686;2023-04-10T00:23:15;10.20;;;9.20;;
60098;SDS011;62818;49.394;8.686;2023-04-10T00:24:15;10.93;;;9.37;;
60098;SDS011;62818;49.394;8.686;2023-04-10T00:25:16;10.87;;;9.63;;
60098;SDS011;62818;49.394;8.686;2023-04-10T00:26:16;10.77;;;9.07;;
60098;SDS011;62818;49.394;8.686;2023-04-10T00:27:17;11.60;;;10.10;;
60098;SDS011;62818;49.394;8.686;2023-04-10T00:28:18;11.07;;;9.97;;
60098;SDS011;62818;49.394;8.686;2023-04-10T00:29:18;10.63;;;9.53;;
60098;SDS011;62818;49.394;8.686;2023-04-10T00:30:19;11.07;;;9.90;;
60098;SDS011;62818;49.394;8.686;2023-04-10T00:31:20;10.65;;;9.52;;
60098;SDS011;62818;49.394;8.686;2023-04-10T00:32:21;11.03;;;9.90;;
60098;SDS011;62818;49.394;8.686;2023-04-10T00:33:21;13.07;;;10.30;;
60098;SDS011;62818;49.394;8.686;2023-04-10T00:34:22;10.67;;;9.27;;
60098;SDS011;62818;49.394;8.686;2023-04-10T00:35:23;11.77;;;9.73;;
60098;SDS011;62818;49.394;8.686;2023-04-10T00:36:23;10.20;;;9.10;;
60098;SDS011;62818;49.394;8.686;2023-04-10T00:37:25;10.52;;;9.43;;
60098;SDS011;62818;49.394;8.686;2023-04-10T00:38:26;10.67;;;9.57;;
60098;SDS011;62818;49.394;8.686;2023-04-10T00:39:26;11.30;;;9.50;;
60098;SDS011;62818;49.394;8.686;2023-04-10T00:40:27;10.23;;;9.10;;
60098;SDS011;62818;49.394;8.686;2023-04-10T00:41:29;13.43;;;10.55;;
60098;SDS011;62818;49.394;8.686;2023-04-10T00:42:29;10.63;;;9.53;;
60098;SDS011;62818;49.394;8.686;2023-04-10T00:43:30;10.38;;;9.13;;
60098;SDS011;62818;49.394;8.686;2023-04-10T00:44:31;12.87;;;9.40;;
60098;SDS011;62818;49.394;8.686;2023-04-10T00:45:36;10.75;;;9.65;;
60098;SDS011;62818;49.394;8.686;2023-04-10T00:46:37;10.50;;;9.27;;
60098;SDS011;62818;49.394;8.686;2023-04-10T00:47:39;10.80;;;9.65;;
60098;SDS011;62818;49.394;8.686;2023-04-10T00:48:40;9.87;;;8.87;;
60098;SDS011;62818;49.394;8.686;2023-04-10T00:49:40;10.57;;;9.47;;
60098;SDS011;62818;49.394;8.686;2023-04-10T00:50:42;10.50;;;9.45;;
60098;SDS011;62818;49.394;8.686;2023-04-10T00:51:45;10.02;;;9.02;;
60098;SDS011;62818;49.394;8.686;2023-04-10T00:52:47;12.45;;;9.52;;
60098;SDS011;62818;49.394;8.686;2023-04-10T00:53:49;11.27;;;9.60;;
60098;SDS011;62818;49.394;8.686;2023-04-10T00:54:50;13.93;;;9.05;;
60098;SDS011;62818;49.394;8.686;2023-04-10T00:55:51;10.63;;;9.05;;
60098;SDS011;62818;49.394;8.686;2023-04-10T00:56:53;10.45;;;9.40;;
60098;SDS011;62818;49.394;8.686;2023-04-10T00:57:56;10.70;;;9.38;;
60098;SDS011;62818;49.394;8.686;2023-04-10T00:58:57;12.55;;;8.95;;
60098;SDS011;62818;49.394;8.686;2023-04-10T00:59:57;11.43;;;8.67;;
60098;SDS011;62818;49.394;8.686;2023-04-10T01:00:59;10.50;;;9.32;;
60098;SDS011;62818;49.394;8.686;2023-04-10T01:02:01;10.07;;;9.07;;
60098;SDS011;62818;49.394;8.686;2023-04-10T01:03:02;10.25;;;9.15;;
60098;SDS011;62818;49.394;8.686;2023-04-10T01:04:03;10.07;;;9.07;;
60098;SDS011;62818;49.394;8.686;2023-04-10T01:05:04;11.18;;;9.27;;
60098;SDS011;62818;49.394;8.686;2023-04-10T01:10:19;9.93;;;8.95;;
60098;SDS011;62818;49.394;8.686;2023-04-10T01:11:38;10.15;;;8.85;;
60098;SDS011;62818;49.394;8.686;2023-04-10T01:13:21;10.50;;;9.20;;
60098;SDS011;62818;49.394;8.686;2023-04-10T01:17:19;9.65;;;8.68;;
60098;SDS011;62818;49.394;8.686;2023-04-10T01:18:30;9.68;;;8.57;;
60098;SDS011;62818;49.394;8.686;2023-04-10T01:21:02;9.60;;;8.60;;
60098;SDS011;62818;49.394;8.686;2023-04-10T01:22:08;10.25;;;8.57;;
60098;SDS011;62818;49.394;8.686;2023-04-10T01:29:31;9.85;;;8.68;;
60098;SDS011;62818;49.394;8.686;2023-04-10T01:30:35;9.32;;;8.32;;
60098;SDS011;62818;49.394;8.686;2023-04-10T01:31:41;10.45;;;8.93;;
60098;SDS011;62818;49.394;8.686;2023-04-10T01:32:49;9.40;;;8.48;;
60098;SDS011;62818;49.394;8.686;2023-04-10T01:33:59;9.48;;;8.52;;
60098;SDS011;62818;49.394;8.686;2023-04-10T01:35:07;9.25;;;8.35;;
60098;SDS011;62818;49.394;8.686;2023-04-10T01:36:09;9.50;;;8.60;;
60098;SDS011;62818;49.394;8.686;2023-04-10T01:38:30;10.07;;;9.07;;
60098;SDS011;62818;49.394;8.686;2023-04-10T01:39:35;9.75;;;8.35;;
60098;SDS011;62818;49.394;8.686;2023-04-10T01:40:40;9.23;;;8.40;;
60098;SDS011;62818;49.394;8.686;2023-04-10T01:41:49;9.43;;;8.45;;
60098;SDS011;62818;49.394;8.686;2023-04-10T01:42:54;13.32;;;8.63;;
60098;SDS011;62818;49.394;8.686;2023-04-10T01:43:56;9.50;;;8.50;;
60098;SDS011;62818;49.394;8.686;2023-04-10T01:44:59;9.40;;;8.50;;
60098;SDS011;62818;49.394;8.686;2023-04-10T01:46:02;10.43;;;8.90;;
60098;SDS011;62818;49.394;8.686;2023-04-10T01:47:04;10.68;;;8.40;;
60098;SDS011;62818;49.394;8.686;2023-04-10T01:48:07;9.70;;;8.60;;
60098;SDS011;62818;49.394;8.686;2023-04-10T01:49:07;10.48;;;8.95;;
60098;SDS011;62818;49.394;8.686;2023-04-10T01:51:11;9.65;;;8.15;;
60098;SDS011;62818;49.394;8.686;2023-04-10T01:52:15;9.05;;;8.13;;
60098;SDS011;62818;49.394;8.686;2023-04-10T01:53:17;8.88;;;7.97;;
60098;SDS011;62818;49.394;8.686;2023-04-10T01:54:19;8.70;;;7.90;;
60098;SDS011;62818;49.394;8.686;2023-04-10T01:55:20;9.15;;;8.20;;
60098;SDS011;62818;49.394;8.686;2023-04-10T01:56:21;9.52;;;7.72;;
60098;SDS011;62818;49.394;8.686;2023-04-10T01:57:21;8.83;;;7.53;;
60098;SDS011;62818;49.394;8.686;2023-04-10T01:58:23;9.10;;;7.70;;
60098;SDS011;62818;49.394;8.686;2023-04-10T01:59:23;8.83;;;8.03;;
60098;SDS011;62818;49.394;8.686;2023-04-10T02:00:25;8.48;;;7.57;;
60098;SDS011;62818;49.394;8.686;2023-04-10T02:01:26;8.85;;;7.95;;
60098;SDS011;62818;49.394;8.686;2023-04-10T02:02:30;10.10;;;7.83;;
60098;SDS011;62818;49.394;8.686;2023-04-10T02:03:31;9.40;;;8.05;;
60098;SDS011;62818;49.394;8.686;2023-04-10T02:04:32;7.73;;;7.03;;
60098;SDS011;62818;49.394;8.686;2023-04-10T02:05:38;8.45;;;7.65;;
60098;SDS011;62818;49.394;8.686;2023-04-10T02:07:02;8.05;;;7.25;;
60098;SDS011;62818;49.394;8.686;2023-04-10T02:08:11;8.90;;;8.07;;
60098;SDS011;62818;49.394;8.686;2023-04-10T02:09:34;8.50;;;7.70;;
60098;SDS011;62818;49.394;8.686;2023-04-10T02:10:51;8.93;;;7.95;;
60098;SDS011;62818;49.394;8.686;2023-04-10T02:12:04;8.52;;;7.72;;
60098;SDS011;62818;49.394;8.686;2023-04-10T02:13:10;8.57;;;7.63;;
60098;SDS011;62818;49.394;8.686;2023-04-10T02:14:15;8.50;;;7.68;;
60098;SDS011;62818;49.394;8.686;2023-04-10T02:15:20;7.88;;;7.15;;
60098;SDS011;62818;49.394;8.686;2023-04-10T02:16:24;8.95;;;7.68;;
60098;SDS011;62818;49.394;8.686;2023-04-10T02:17:27;9.13;;;8.10;;
60098;SDS011;62818;49.394;8.686;2023-04-10T02:18:30;8.32;;;7.53;;
60098;SDS011;62818;49.394;8.686;2023-04-10T02:19:33;8.55;;;7.75;;
60098;SDS011;62818;49.394;8.686;2023-04-10T02:20:37;7.95;;;7.25;;
60098;SDS011;62818;49.394;8.686;2023-04-10T02:21:37;8.10;;;7.30;;
60098;SDS011;62818;49.394;8.686;2023-04-10T02:22:41;8.10;;;7.30;;
60098;SDS011;62818;49.394;8.686;2023-04-10T02:23:42;8.13;;;7.32;;
60098;SDS011;62818;49.394;8.686;2023-04-10T02:24:43;7.87;;;7.03;;
60098;SDS011;62818;49.394;8.686;2023-04-10T02:25:44;8.30;;;7.47;;
60098;SDS011;62818;49.394;8.686;2023-04-10T02:26:45;8.00;;;7.23;;
60098;SDS011;62818;49.394;8.686;2023-04-10T02:27:52;8.32;;;7.53;;
60098;SDS011;62818;49.394;8.686;2023-04-10T02:28:53;8.50;;;7.23;;
60098;SDS011;62818;49.394;8.686;2023-04-10T02:29:53;8.77;;;7.17;;
60098;SDS011;62818;49.394;8.686;2023-04-10T02:30:54;11.37;;;7.80;;
60098;SDS011;62818;49.394;8.686;2023-04-10T02:31:54;8.37;;;7.57;;
60098;SDS011;62818;49.394;8.686;2023-04-10T02:32:55;8.27;;;7.47;;
60098;SDS011;62818;49.394;8.686;2023-04-10T02:33:55;8.43;;;7.47;;
60098;SDS011;62818;49.394;8.686;2023-04-10T02:34:56;8.70;;;7.47;;
60098;SDS011;62818;49.394;8.686;2023-04-10T02:35:56;9.13;;;7.90;;
60098;SDS011;62818;49.394;8.686;2023-04-10T02:36:58;9.05;;;8.20;;
60098;SDS011;62818;49.394;8.686;2023-04-10T02:37:59;8.93;;;7.93;;
60098;SDS011;62818;49.394;8.686;2023-04-10T02:38:59;8.40;;;7.57;;
60098;SDS011;62818;49.394;8.686;2023-04-10T02:40:00;8.90;;;8.00;;
60098;SDS011;62818;49.394;8.686;2023-04-10T02:41:00;8.80;;;7.63;;
60098;SDS011;62818;49.394;8.686;2023-04-10T02:42:01;8.07;;;7.27;;
60098;SDS011;62818;49.394;8.686;2023-04-10T02:43:01;8.70;;;7.80;;
60098;SDS011;62818;49.394;8.686;2023-04-10T02:44:02;8.20;;;7.40;;
60098;SDS011;62818;49.394;8.686;2023-04-10T02:45:03;8.10;;;7.30;;
60098;SDS011;62818;49.394;8.686;2023-04-10T02:46:05;9.20;;;8.30;;
60098;SDS011;62818;49.394;8.686;2023-04-10T02:47:05;8.47;;;7.67;;
60098;SDS011;62818;49.394;8.686;2023-04-10T02:48:06;8.13;;;7.33;;
60098;SDS011;62818;49.394;8.686;2023-04-10T02:49:06;8.50;;;7.60;;
60098;SDS011;62818;49.394;8.686;2023-04-10T02:50:07;7.93;;;7.20;;
60098;SDS011;62818;49.394;8.686;2023-04-10T02:51:08;8.07;;;7.28;;
60098;SDS011;62818;49.394;8.686;2023-04-10T02:52:09;7.80;;;7.00;;
60098;SDS011;62818;49.394;8.686;2023-04-10T02:53:09;8.30;;;7.47;;
60098;SDS011;62818;49.394;8.686;2023-04-10T02:54:12;9.05;;;8.15;;
60098;SDS011;62818;49.394;8.686;2023-04-10T02:55:13;8.47;;;7.63;;
60098;SDS011;62818;49.394;8.686;2023-04-10T02:56:13;8.17;;;7.37;;
60098;SDS011;62818;49.394;8.686;2023-04-10T02:57:14;8.10;;;7.30;;
60098;SDS011;62818;49.394;8.686;2023-04-10T02:58:15;7.60;;;6.78;;
60098;SDS011;62818;49.394;8.686;2023-04-10T02:59:16;7.75;;;7.05;;
60098;SDS011;62818;49.394;8.686;2023-04-10T03:00:17;7.67;;;6.97;;
60098;SDS011;62818;49.394;8.686;2023-04-10T03:01:18;8.68;;;7.78;;
60098;SDS011;62818;49.394;8.686;2023-04-10T03:02:18;8.57;;;7.77;;
60098;SDS011;62818;49.394;8.686;2023-04-10T03:03:19;8.83;;;7.03;;
60098;SDS011;62818;49.394;8.686;2023-04-10T03:04:20;8.03;;;6.93;;
60098;SDS011;62818;49.394;8.686;2023-04-10T03:05:20;8.70;;;7.27;;
60098;SDS011;62818;49.394;8.686;2023-04-10T03:06:21;8.47;;;7.63;;
60098;SDS011;62818;49.394;8.686;2023-04-10T03:07:25;8.63;;;7.70;;
60098;SDS011;62818;49.394;8.686;2023-04-10T03:08:26;8.65;;;7.28;;
60098;SDS011;62818;49.394;8.686;2023-04-10T03:09:26;9.10;;;7.80;;
60098;SDS011;62818;49.394;8.686;2023-04-10T03:10:27;8.00;;;7.20;;
60098;SDS011;62818;49.394;8.686;2023-04-10T03:11:28;9.88;;;7.55;;
60098;SDS011;62818;49.394;8.686;2023-04-10T03:12:29;10.05;;;7.60;;
60098;SDS011;62818;49.394;8.686;2023-04-10T03:13:30;8.52;;;7.57;;
60098;SDS011;62818;49.394;8.686;2023-04-10T03:14:30;8.03;;;7.23;;
60098;SDS011;62818;49.394;8.686;2023-04-10T03:15:31;8.10;;;7.30;;
60098;SDS011;62818;49.394;8.686;2023-04-10T03:16:32;8.75;;;7.95;;
60098;SDS011;62818;49.394;8.686;2023-04-10T03:17:33;8.20;;;7.23;;
60098;SDS011;62818;49.394;8.686;2023-04-10T03:18:33;8.60;;;7.70;;
60098;SDS011;62818;49.394;8.686;2023-04-10T03:19:37;8.17;;;7.37;;
60098;SDS011;62818;49.394;8.686;2023-04-10T03:20:37;8.98;;;8.07;;
60098;SDS011;62818;49.394;8.686;2023-04-10T03:21:38;8.03;;;7.23;;
60098;SDS011;62818;49.394;8.686;2023-04-10T03:22:38;10.33;;;7.87;;
60098;SDS011;62818;49.394;8.686;2023-04-10T03:23:40;10.20;;;7.93;;
60098;SDS011;62818;49.394;8.686;2023-04-10T03:24:40;8.00;;;7.30;;
60098;SDS011;62818;49.394;8.686;2023-04-10T03:25:41;8.77;;;7.87;;
60098;SDS011;62818;49.394;8.686;2023-04-10T03:26:42;8.65;;;7.85;;
60098;SDS011;62818;49.394;8.686;2023-04-10T03:27:42;8.67;;;7.77;;
60098;SDS011;62818;49.394;8.686;2023-04-10T03:28:43;7.90;;;7.10;;
60098;SDS011;62818;49.394;8.686;2023-04-10T03:29:43;8.50;;;7.47;;
60098;SDS011;62818;49.394;8.686;2023-04-10T03:30:44;8.57;;;7.77;;
60098;SDS011;62818;49.394;8.686;2023-04-10T03:31:44;8.60;;;7.80;;
60098;SDS011;62818;49.394;8.686;2023-04-10T03:32:45;8.77;;;7.93;;
60098;SDS011;62818;49.394;8.686;2023-04-10T03:33:46;8.60;;;7.70;;
60098;SDS011;62818;49.394;8.686;2023-04-10T03:34:46;8.80;;;8.00;;
60098;SDS011;62818;49.394;8.686;2023-04-10T03:35:47;11.33;;;8.20;;
60098;SDS011;62818;49.394;8.686;2023-04-10T03:36:47;8.50;;;7.70;;
60098;SDS011;62818;49.394;8.686;2023-04-10T03:37:47;9.07;;;7.93;;
60098;SDS011;62818;49.394;8.686;2023-04-10T03:38:48;10.43;;;8.50;;
60098;SDS011;62818;49.394;8.686;2023-04-10T03:39:48;8.73;;;7.60;;
60098;SDS011;62818;49.394;8.686;2023-04-10T03:40:49;8.67;;;7.77;;
60098;SDS011;62818;49.394;8.686;2023-04-10T03:41:49;10.10;;;8.30;;
60098;SDS011;62818;49.394;8.686;2023-04-10T03:42:50;10.43;;;8.10;;
60098;SDS011;62818;49.394;8.686;2023-04-10T03:43:50;8.73;;;7.93;;
60098;SDS011;62818;49.394;8.686;2023-04-10T03:44:51;8.03;;;7.23;;
60098;SDS011;62818;49.394;8.686;2023-04-10T03:45:51;8.43;;;7.60;;
60098;SDS011;62818;49.394;8.686;2023-04-10T03:46:52;10.03;;;7.43;;
60098;SDS011;62818;49.394;8.686;2023-04-10T03:47:52;9.20;;;8.33;;
60098;SDS011;62818;49.394;8.686;2023-04-10T03:48:53;8.47;;;7.67;;
60098;SDS011;62818;49.394;8.686;2023-04-10T03:49:53;8.33;;;7.57;;
60098;SDS011;62818;49.394;8.686;2023-04-10T03:50:54;8.57;;;7.70;;
60098;SDS011;62818;49.394;8.686;2023-04-10T03:51:54;9.57;;;7.80;;
60098;SDS011;62818;49.394;8.686;2023-04-10T03:52:55;8.27;;;7.47;;
60098;SDS011;62818;49.394;8.686;2023-04-10T03:53:55;9.03;;;8.13;;
60098;SDS011;62818;49.394;8.686;2023-04-10T03:54:56;8.90;;;7.87;;
60098;SDS011;62818;49.394;8.686;2023-04-10T03:55:56;8.87;;;7.97;;
60098;SDS011;62818;49.394;8.686;2023-04-10T03:56:57;8.33;;;7.57;;
60098;SDS011;62818;49.394;8.686;2023-04-10T03:57:57;8.40;;;7.60;;
60098;SDS011;62818;49.394;8.686;2023-04-10T03:58:58;9.10;;;8.17;;
60098;SDS011;62818;49.394;8.686;2023-04-10T03:59:58;9.53;;;7.97;;
60098;SDS011;62818;49.394;8.686;2023-04-10T04:00:59;11.20;;;8.60;;
60098;SDS011;62818;49.394;8.686;2023-04-10T04:01:59;9.00;;;8.10;;
60098;SDS011;62818;49.394;8.686;2023-04-10T04:03:00;8.50;;;7.67;;
60098;SDS011;62818;49.394;8.686;2023-04-10T04:04:04;8.70;;;7.70;;
60098;SDS011;62818;49.394;8.686;2023-04-10T04:05:05;9.45;;;8.23;;
60098;SDS011;62818;49.394;8.686;2023-04-10T04:06:05;8.48;;;7.63;;
60098;SDS011;62818;49.394;8.686;2023-04-10T04:07:06;9.43;;;7.87;;
60098;SDS011;62818;49.394;8.686;2023-04-10T04:08:07;8.98;;;8.00;;
60098;SDS011;62818;49.394;8.686;2023-04-10T04:09:08;8.63;;;7.77;;
60098;SDS011;62818;49.394;8.686;2023-04-10T04:10:08;8.47;;;7.63;;
60098;SDS011;62818;49.394;8.686;2023-04-10T04:11:09;10.40;;;7.90;;
60098;SDS011;62818;49.394;8.686;2023-04-10T04:12:10;8.65;;;7.80;;
60098;SDS011;62818;49.394;8.686;2023-04-10T04:13:10;9.27;;;7.93;;
60098;SDS011;62818;49.394;8.686;2023-04-10T04:14:11;8.53;;;7.73;;
60098;SDS011;62818;49.394;8.686;2023-04-10T04:15:12;8.03;;;7.13;;
60098;SDS011;62818;49.394;8.686;2023-04-10T04:16:12;8.77;;;7.87;;
60098;SDS011;62818;49.394;8.686;2023-04-10T04:17:13;9.30;;;8.40;;
60098;SDS011;62818;49.394;8.686;2023-04-10T04:18:13;10.23;;;7.87;;
60098;SDS011;62818;49.394;8.686;2023-04-10T04:19:14;9.00;;;7.70;;
60098;SDS011;62818;49.394;8.686;2023-04-10T04:20:15;8.93;;;8.03;;
60098;SDS011;62818;49.394;8.686;2023-04-10T04:21:15;8.83;;;7.93;;
60098;SDS011;62818;49.394;8.686;2023-04-10T04:22:16;8.00;;;7.20;;
60098;SDS011;62818;49.394;8.686;2023-04-10T04:23:16;8.63;;;7.57;;
60098;SDS011;62818;49.394;8.686;2023-04-10T04:24:17;8.60;;;7.60;;
60098;SDS011;62818;49.394;8.686;2023-04-10T04:25:17;8.37;;;7.00;;
60098;SDS011;62818;49.394;8.686;2023-04-10T04:26:19;8.43;;;7.60;;
60098;SDS011;62818;49.394;8.686;2023-04-10T04:27:19;7.87;;;7.17;;
60098;SDS011;62818;49.394;8.686;2023-04-10T04:28:21;8.27;;;7.32;;
60098;SDS011;62818;49.394;8.686;2023-04-10T04:29:22;8.15;;;7.35;;
60098;SDS011;62818;49.394;8.686;2023-04-10T04:30:22;11.23;;;7.47;;
60098;SDS011;62818;49.394;8.686;2023-04-10T04:31:23;10.93;;;7.80;;
60098;SDS011;62818;49.394;8.686;2023-04-10T04:32:24;8.38;;;7.07;;
60098;SDS011;62818;49.394;8.686;2023-04-10T04:33:24;7.70;;;6.90;;
60098;SDS011;62818;49.394;8.686;2023-04-10T04:34:25;8.55;;;7.72;;
60098;SDS011;62818;49.394;8.686;2023-04-10T04:35:25;10.10;;;7.27;;
60098;SDS011;62818;49.394;8.686;2023-04-10T04:36:26;8.00;;;7.30;;
60098;SDS011;62818;49.394;8.686;2023-04-10T04:37:27;8.73;;;7.38;;
60098;SDS011;62818;49.394;8.686;2023-04-10T04:38:27;8.57;;;7.57;;
60098;SDS011;62818;49.394;8.686;2023-04-10T04:39:28;8.37;;;7.50;;
60098;SDS011;62818;49.394;8.686;2023-04-10T04:40:28;10.03;;;7.83;;
60098;SDS011;62818;49.394;8.686;2023-04-10T04:41:29;8.13;;;7.33;;
60098;SDS011;62818;49.394;8.686;2023-04-10T04:42:31;8.32;;;7.53;;
60098;SDS011;62818;49.394;8.686;2023-04-10T04:43:31;8.10;;;7.33;;
60098;SDS011;62818;49.394;8.686;2023-04-10T04:44:32;8.47;;;7.33;;
60098;SDS011;62818;49.394;8.686;2023-04-10T04:45:32;8.03;;;7.23;;
60098;SDS011;62818;49.394;8.686;2023-04-10T04:46:33;7.90;;;7.17;;
60098;SDS011;62818;49.394;8.686;2023-04-10T04:47:33;8.30;;;7.47;;
60098;SDS011;62818;49.394;8.686;2023-04-10T04:48:34;8.03;;;7.27;;
60098;SDS011;62818;49.394;8.686;2023-04-10T04:49:34;8.65;;;7.85;;
60098;SDS011;62818;49.394;8.686;2023-04-10T04:50:35;9.20;;;7.07;;
60098;SDS011;62818;49.394;8.686;2023-04-10T04:51:38;9.27;;;7.18;;
60098;SDS011;62818;49.394;8.686;2023-04-10T04:52:39;8.80;;;7.90;;
60098;SDS011;62818;49.394;8.686;2023-04-10T04:53:39;9.13;;;8.10;;
60098;SDS011;62818;49.394;8.686;2023-04-10T04:54:40;10.53;;;7.53;;
60098;SDS011;62818;49.394;8.686;2023-04-10T04:55:40;8.23;;;7.43;;
60098;SDS011;62818;49.394;8.686;2023-04-10T04:56:41;8.30;;;7.43;;
60098;SDS011;62818;49.394;8.686;2023-04-10T04:57:41;8.20;;;7.43;;
60098;SDS011;62818;49.394;8.686;2023-04-10T04:58:42;8.77;;;7.87;;
60098;SDS011;62818;49.394;8.686;2023-04-10T04:59:42;8.80;;;7.87;;
60098;SDS011;62818;49.394;8.686;2023-04-10T05:00:43;8.17;;;7.37;;
60098;SDS011;62818;49.394;8.686;2023-04-10T05:01:43;8.77;;;7.87;;
60098;SDS011;62818;49.394;8.686;2023-04-10T05:02:44;8.30;;;7.60;;
60098;SDS011;62818;49.394;8.686;2023-04-10T05:03:44;8.43;;;7.63;;
60098;SDS011;62818;49.394;8.686;2023-04-10T05:04:45;9.10;;;8.13;;
60098;SDS011;62818;49.394;8.686;2023-04-10T05:05:46;9.13;;;8.23;;
60098;SDS011;62818;49.394;8.686;2023-04-10T05:06:46;8.88;;;8.00;;
60098;SDS011;62818;49.394;8.686;2023-04-10T05:07:47;8.50;;;7.60;;
60098;SDS011;62818;49.394;8.686;2023-04-10T05:08:47;8.37;;;7.37;;
60098;SDS011;62818;49.394;8.686;2023-04-10T05:09:48;8.90;;;8.00;;
60098;SDS011;62818;49.394;8.686;2023-04-10T05:10:48;8.87;;;8.00;;
60098;SDS011;62818;49.394;8.686;2023-04-10T05:11:49;8.77;;;7.88;;
60098;SDS011;62818;49.394;8.686;2023-04-10T05:12:50;9.27;;;8.07;;
60098;SDS011;62818;49.394;8.686;2023-04-10T05:13:50;8.80;;;7.90;;
60098;SDS011;62818;49.394;8.686;2023-04-10T05:14:51;10.47;;;8.23;;
60098;SDS011;62818;49.394;8.686;2023-04-10T05:15:52;8.35;;;7.55;;
60098;SDS011;62818;49.394;8.686;2023-04-10T05:16:53;8.23;;;7.43;;
60098;SDS011;62818;49.394;8.686;2023-04-10T05:17:53;8.33;;;7.53;;
60098;SDS011;62818;49.394;8.686;2023-04-10T05:18:54;8.67;;;7.77;;
60098;SDS011;62818;49.394;8.686;2023-04-10T05:19:54;9.07;;;8.17;;
60098;SDS011;62818;49.394;8.686;2023-04-10T05:20:55;8.43;;;7.53;;
60098;SDS011;62818;49.394;8.686;2023-04-10T05:21:55;8.20;;;7.40;;
60098;SDS011;62818;49.394;8.686;2023-04-10T05:22:56;8.87;;;7.87;;
60098;SDS011;62818;49.394;8.686;2023-04-10T05:23:57;8.27;;;7.20;;
60098;SDS011;62818;49.394;8.686;2023-04-10T05:24:57;8.57;;;7.77;;
60098;SDS011;62818;49.394;8.686;2023-04-10T05:25:58;8.40;;;7.53;;
60098;SDS011;62818;49.394;8.686;2023-04-10T05:26:58;8.53;;;7.73;;
60098;SDS011;62818;49.394;8.686;2023-04-10T05:27:59;9.48;;;8.50;;
60098;SDS011;62818;49.394;8.686;2023-04-10T05:29:00;8.60;;;7.73;;
60098;SDS011;62818;49.394;8.686;2023-04-10T05:30:00;8.73;;;7.73;;
60098;SDS011;62818;49.394;8.686;2023-04-10T05:31:02;8.85;;;7.80;;
60098;SDS011;62818;49.394;8.686;2023-04-10T05:32:03;8.27;;;7.37;;
60098;SDS011;62818;49.394;8.686;2023-04-10T05:33:03;9.90;;;8.60;;
60098;SDS011;62818;49.394;8.686;2023-04-10T05:34:04;9.47;;;8.47;;
60098;SDS011;62818;49.394;8.686;2023-04-10T05:35:05;9.33;;;7.80;;
60098;SDS011;62818;49.394;8.686;2023-04-10T05:36:06;9.38;;;8.38;;
60098;SDS011;62818;49.394;8.686;2023-04-10T05:37:07;7.97;;;7.15;;
60098;SDS011;62818;49.394;8.686;2023-04-10T05:38:08;8.95;;;8.00;;
60098;SDS011;62818;49.394;8.686;2023-04-10T05:39:08;9.67;;;8.53;;
60098;SDS011;62818;49.394;8.686;2023-04-10T05:40:09;9.90;;;8.60;;
60098;SDS011;62818;49.394;8.686;2023-04-10T05:41:10;9.07;;;8.17;;
60098;SDS011;62818;49.394;8.686;2023-04-10T05:42:10;8.20;;;7.40;;
60098;SDS011;62818;49.394;8.686;2023-04-10T05:44:12;9.05;;;8.18;;
60098;SDS011;62818;49.394;8.686;2023-04-10T05:45:13;9.23;;;7.83;;
60098;SDS011;62818;49.394;8.686;2023-04-10T05:46:13;9.60;;;8.63;;
60098;SDS011;62818;49.394;8.686;2023-04-10T05:47:14;9.50;;;8.60;;
60098;SDS011;62818;49.394;8.686;2023-04-10T05:48:15;8.57;;;7.67;;
60098;SDS011;62818;49.394;8.686;2023-04-10T05:49:15;9.03;;;8.13;;
60098;SDS011;62818;49.394;8.686;2023-04-10T05:50:15;10.13;;;8.50;;
60098;SDS011;62818;49.394;8.686;2023-04-10T05:51:16;9.17;;;8.27;;
60098;SDS011;62818;49.394;8.686;2023-04-10T05:52:16;9.80;;;8.33;;
60098;SDS011;62818;49.394;8.686;2023-04-10T05:53:18;9.00;;;7.97;;
60098;SDS011;62818;49.394;8.686;2023-04-10T05:54:19;8.70;;;7.82;;
60098;SDS011;62818;49.394;8.686;2023-04-10T05:55:20;8.77;;;7.88;;
60098;SDS011;62818;49.394;8.686;2023-04-10T05:56:20;9.43;;;8.53;;
60098;SDS011;62818;49.394;8.686;2023-04-10T05:57:20;8.47;;;7.63;;
60098;SDS011;62818;49.394;8.686;2023-04-10T05:58:21;9.20;;;8.07;;
60098;SDS011;62818;49.394;8.686;2023-04-10T05:59:22;8.63;;;7.80;;
60098;SDS011;62818;49.394;8.686;2023-04-10T06:00:22;11.38;;;8.52;;
60098;SDS011;62818;49.394;8.686;2023-04-10T06:01:23;9.93;;;8.80;;
60098;SDS011;62818;49.394;8.686;2023-04-10T06:02:23;9.87;;;8.63;;
60098;SDS011;62818;49.394;8.686;2023-04-10T06:03:24;9.00;;;8.10;;
60098;SDS011;62818;49.394;8.686;2023-04-10T06:04:26;9.20;;;8.30;;
60098;SDS011;62818;49.394;8.686;2023-04-10T06:05:26;8.30;;;7.40;;
60098;SDS011;62818;49.394;8.686;2023-04-10T06:06:27;8.60;;;7.80;;
60098;SDS011;62818;49.394;8.686;2023-04-10T06:07:28;9.40;;;8.50;;
60098;SDS011;62818;49.394;8.686;2023-04-10T06:08:29;9.10;;;8.17;;
60098;SDS011;62818;49.394;8.686;2023-04-10T06:09:29;9.57;;;8.57;;
60098;SDS011;62818;49.394;8.686;2023-04-10T06:10:30;10.13;;;8.17;;
60098;SDS011;62818;49.394;8.686;2023-04-10T06:11:31;8.77;;;7.97;;
60098;SDS011;62818;49.394;8.686;2023-04-10T06:12:32;9.93;;;8.93;;
60098;SDS011;62818;49.394;8.686;2023-04-10T06:13:32;9.07;;;8.17;;
60098;SDS011;62818;49.394;8.686;2023-04-10T06:14:33;9.57;;;8.57;;
60098;SDS011;62818;49.394;8.686;2023-04-10T06:15:34;9.43;;;8.48;;
60098;SDS011;62818;49.394;8.686;2023-04-10T06:16:34;9.40;;;8.50;;
60098;SDS011;62818;49.394;8.686;2023-04-10T06:17:40;9.27;;;8.37;;
60098;SDS011;62818;49.394;8.686;2023-04-10T06:18:42;9.55;;;7.95;;
60098;SDS011;62818;49.394;8.686;2023-04-10T06:19:43;9.07;;;8.17;;
60098;SDS011;62818;49.394;8.686;2023-04-10T06:20:43;9.20;;;8.30;;
60098;SDS011;62818;49.394;8.686;2023-04-10T06:21:44;9.23;;;8.33;;
60098;SDS011;62818;49.394;8.686;2023-04-10T06:22:44;9.57;;;8.33;;
60098;SDS011;62818;49.394;8.686;2023-04-10T06:23:45;9.90;;;7.77;;
60098;SDS011;62818;49.394;8.686;2023-04-10T06:24:45;9.30;;;8.30;;
60098;SDS011;62818;49.394;8.686;2023-04-10T06:25:46;9.50;;;8.60;;
60098;SDS011;62818;49.394;8.686;2023-04-10T06:26:46;8.93;;;8.03;;
60098;SDS011;62818;49.394;8.686;2023-04-10T06:27:47;9.07;;;8.20;;
60098;SDS011;62818;49.394;8.686;2023-04-10T06:28:47;10.20;;;9.07;;
60098;SDS011;62818;49.394;8.686;2023-04-10T06:29:48;8.60;;;7.80;;